sensor_id;sensor_type;location;lat;lon;timestamp;P1;durP1;ratioP1;P2;durP2;ratioP2
28844;SDS011;15976;47.938;7.758;2023-04-25T00:02:24;4.47;;;2.85;;
28844;SDS011;15976;47.938;7.758;2023-04-25T00:04:51;6.45;;;2.92;;
28844;SDS011;15976;47.938;7.758;2023-04-25T00:07:19;4.68;;;3.35;;
28844;SDS011;15976;47.938;7.758;2023-04-25T00:09:46;9.00;;;3.38;;
28844;SDS011;15976;47.938;7.758;2023-04-25T00:12:13;5.05;;;3.05;;
28844;SDS011;15976;47.938;7.758;2023-04-25T00:14:40;8.68;;;3.28;;
28844;SDS011;15976;47.938;7.758;2023-04-25T00:17:07;5.70;;;3.72;;
28844;SDS011;15976;47.938;7.758;2023-04-25T00:19:34;11.95;;;3.78;;
28844;SDS011;15976;47.938;7.758;2023-04-25T00:22:01;7.82;;;3.40;;
28844;SDS011;15976;47.938;7.758;2023-04-25T00:24:28;7.88;;;3.50;;
28844;SDS011;15976;47.938;7.758;2023-04-25T00:26:55;5.22;;;3.33;;
28844;SDS011;15976;47.938;7.758;2023-04-25T00:29:22;8.32;;;3.30;;
28844;SDS011;15976;47.938;7.758;2023-04-25T00:31:49;8.07;;;3.30;;
28844;SDS011;15976;47.938;7.758;2023-04-25T00:34:16;7.88;;;3.80;;
28844;SDS011;15976;47.938;7.758;2023-04-25T00:36:43;8.20;;;4.00;;
28844;SDS011;15976;47.938;7.758;2023-04-25T00:39:10;7.80;;;3.78;;
28844;SDS011;15976;47.938;7.758;2023-04-25T00:41:37;6.45;;;3.15;;
28844;SDS011;15976;47.938;7.758;2023-04-25T00:44:06;8.25;;;3.47;;
28844;SDS011;15976;47.938;7.758;2023-04-25T00:46:38;10.02;;;3.53;;
28844;SDS011;15976;47.938;7.758;2023-04-25T00:49:06;10.80;;;3.55;;
28844;SDS011;15976;47.938;7.758;2023-04-25T00:51:33;7.97;;;3.92;;
28844;SDS011;15976;47.938;7.758;2023-04-25T00:54:00;8.90;;;3.67;;
28844;SDS011;15976;47.938;7.758;2023-04-25T00:56:28;7.82;;;3.60;;
28844;SDS011;15976;47.938;7.758;2023-04-25T00:58:54;8.93;;;3.67;;
28844;SDS011;15976;47.938;7.758;2023-04-25T01:01:23;7.40;;;3.50;;
28844;SDS011;15976;47.938;7.758;2023-04-25T01:03:50;6.53;;;3.55;;
28844;SDS011;15976;47.938;7.758;2023-04-25T01:06:18;7.32;;;3.78;;
28844;SDS011;15976;47.938;7.758;2023-04-25T01:08:45;5.45;;;3.70;;
28844;SDS011;15976;47.938;7.758;2023-04-25T01:11:12;8.35;;;3.75;;
28844;SDS011;15976;47.938;7.758;2023-04-25T01:13:39;6.72;;;3.45;;
28844;SDS011;15976;47.938;7.758;2023-04-25T01:16:06;9.68;;;4.10;;
28844;SDS011;15976;47.938;7.758;2023-04-25T01:18:33;11.63;;;4.18;;
28844;SDS011;15976;47.938;7.758;2023-04-25T01:21:07;9.88;;;3.70;;
28844;SDS011;15976;47.938;7.758;2023-04-25T01:23:37;8.43;;;3.80;;
28844;SDS011;15976;47.938;7.758;2023-04-25T01:26:06;5.93;;;3.60;;
28844;SDS011;15976;47.938;7.758;2023-04-25T01:28:35;7.70;;;4.07;;
28844;SDS011;15976;47.938;7.758;2023-04-25T01:31:03;5.03;;;3.13;;
28844;SDS011;15976;47.938;7.758;2023-04-25T01:33:35;9.45;;;3.63;;
28844;SDS011;15976;47.938;7.758;2023-04-25T01:36:02;4.00;;;3.15;;
28844;SDS011;15976;47.938;7.758;2023-04-25T01:38:30;6.78;;;2.88;;
28844;SDS011;15976;47.938;7.758;2023-04-25T01:40:59;5.30;;;3.38;;
28844;SDS011;15976;47.938;7.758;2023-04-25T01:43:26;8.02;;;3.50;;
28844;SDS011;15976;47.938;7.758;2023-04-25T01:45:54;5.32;;;3.50;;
28844;SDS011;15976;47.938;7.758;2023-04-25T01:48:23;8.18;;;3.25;;
28844;SDS011;15976;47.938;7.758;2023-04-25T01:50:50;10.07;;;5.05;;
28844;SDS011;15976;47.938;7.758;2023-04-25T01:53:17;9.00;;;3.50;;
28844;SDS011;15976;47.938;7.758;2023-04-25T01:55:45;7.45;;;3.40;;
28844;SDS011;15976;47.938;7.758;2023-04-25T01:58:14;8.00;;;3.20;;
28844;SDS011;15976;47.938;7.758;2023-04-25T02:01:00;7.45;;;3.38;;
28844;SDS011;15976;47.938;7.758;2023-04-25T02:03:34;7.00;;;3.15;;
28844;SDS011;15976;47.938;7.758;2023-04-25T02:06:07;7.55;;;2.88;;
28844;SDS011;15976;47.938;7.758;2023-04-25T02:08:38;5.05;;;3.13;;
28844;SDS011;15976;47.938;7.758;2023-04-25T02:11:05;7.00;;;2.97;;
28844;SDS011;15976;47.938;7.758;2023-04-25T02:13:39;8.80;;;3.22;;
28844;SDS011;15976;47.938;7.758;2023-04-25T02:16:25;7.55;;;3.25;;
28844;SDS011;15976;47.938;7.758;2023-04-25T02:18:52;9.55;;;3.63;;
28844;SDS011;15976;47.938;7.758;2023-04-25T02:21:20;8.50;;;3.97;;
28844;SDS011;15976;47.938;7.758;2023-04-25T02:23:47;7.22;;;3.25;;
28844;SDS011;15976;47.938;7.758;2023-04-25T02:26:15;6.70;;;3.72;;
28844;SDS011;15976;47.938;7.758;2023-04-25T02:28:42;8.35;;;3.30;;
28844;SDS011;15976;47.938;7.758;2023-04-25T02:31:09;7.93;;;3.97;;
28844;SDS011;15976;47.938;7.758;2023-04-25T02:33:36;9.77;;;3.55;;
28844;SDS011;15976;47.938;7.758;2023-04-25T02:36:05;7.70;;;3.40;;
28844;SDS011;15976;47.938;7.758;2023-04-25T02:38:32;8.73;;;3.67;;
28844;SDS011;15976;47.938;7.758;2023-04-25T02:40:59;6.68;;;3.30;;
28844;SDS011;15976;47.938;7.758;2023-04-25T02:43:26;8.50;;;3.25;;
28844;SDS011;15976;47.938;7.758;2023-04-25T02:45:53;6.38;;;3.58;;
28844;SDS011;15976;47.938;7.758;2023-04-25T02:48:23;10.75;;;3.60;;
28844;SDS011;15976;47.938;7.758;2023-04-25T02:50:50;6.15;;;3.47;;
28844;SDS011;15976;47.938;7.758;2023-04-25T02:53:17;9.63;;;4.07;;
28844;SDS011;15976;47.938;7.758;2023-04-25T02:55:48;6.53;;;3.38;;
28844;SDS011;15976;47.938;7.758;2023-04-25T02:58:15;7.13;;;3.50;;
28844;SDS011;15976;47.938;7.758;2023-04-25T03:03:16;7.13;;;3.38;;
28844;SDS011;15976;47.938;7.758;2023-04-25T03:05:49;6.68;;;3.40;;
28844;SDS011;15976;47.938;7.758;2023-04-25T03:08:21;4.85;;;2.75;;
28844;SDS011;15976;47.938;7.758;2023-04-25T03:10:49;6.38;;;2.83;;
28844;SDS011;15976;47.938;7.758;2023-04-25T03:13:18;6.25;;;3.00;;
28844;SDS011;15976;47.938;7.758;2023-04-25T03:15:45;9.48;;;3.33;;
28844;SDS011;15976;47.938;7.758;2023-04-25T03:18:12;4.95;;;3.08;;
28844;SDS011;15976;47.938;7.758;2023-04-25T03:20:39;9.18;;;2.90;;
28844;SDS011;15976;47.938;7.758;2023-04-25T03:23:08;6.95;;;3.50;;
28844;SDS011;15976;47.938;7.758;2023-04-25T03:25:37;7.55;;;3.03;;
28844;SDS011;15976;47.938;7.758;2023-04-25T03:28:04;6.55;;;3.33;;
28844;SDS011;15976;47.938;7.758;2023-04-25T03:30:31;7.28;;;2.92;;
28844;SDS011;15976;47.938;7.758;2023-04-25T03:32:59;6.03;;;3.03;;
28844;SDS011;15976;47.938;7.758;2023-04-25T03:35:26;3.88;;;2.72;;
28844;SDS011;15976;47.938;7.758;2023-04-25T03:37:53;7.75;;;2.85;;
28844;SDS011;15976;47.938;7.758;2023-04-25T03:43:16;7.85;;;3.03;;
28844;SDS011;15976;47.938;7.758;2023-04-25T03:45:50;6.03;;;2.80;;
28844;SDS011;15976;47.938;7.758;2023-04-25T03:48:20;10.20;;;2.95;;
28844;SDS011;15976;47.938;7.758;2023-04-25T03:50:49;12.73;;;3.28;;
28844;SDS011;15976;47.938;7.758;2023-04-25T03:53:16;9.23;;;3.33;;
28844;SDS011;15976;47.938;7.758;2023-04-25T03:56:12;7.68;;;3.33;;
28844;SDS011;15976;47.938;7.758;2023-04-25T03:58:39;6.43;;;3.22;;
28844;SDS011;15976;47.938;7.758;2023-04-25T04:01:07;6.07;;;3.15;;
28844;SDS011;15976;47.938;7.758;2023-04-25T04:03:36;9.48;;;3.40;;
28844;SDS011;15976;47.938;7.758;2023-04-25T04:06:04;5.88;;;2.95;;
28844;SDS011;15976;47.938;7.758;2023-04-25T04:08:35;9.10;;;3.30;;
28844;SDS011;15976;47.938;7.758;2023-04-25T04:11:02;7.60;;;3.20;;
28844;SDS011;15976;47.938;7.758;2023-04-25T04:13:31;6.63;;;3.40;;
28844;SDS011;15976;47.938;7.758;2023-04-25T04:15:58;9.20;;;3.90;;
28844;SDS011;15976;47.938;7.758;2023-04-25T04:18:26;7.18;;;4.22;;
28844;SDS011;15976;47.938;7.758;2023-04-25T04:20:55;5.35;;;2.75;;
28844;SDS011;15976;47.938;7.758;2023-04-25T04:23:26;8.23;;;3.42;;
28844;SDS011;15976;47.938;7.758;2023-04-25T04:25:55;7.80;;;3.40;;
28844;SDS011;15976;47.938;7.758;2023-04-25T04:28:47;8.18;;;3.20;;
28844;SDS011;15976;47.938;7.758;2023-04-25T04:31:32;7.18;;;3.30;;
28844;SDS011;15976;47.938;7.758;2023-04-25T04:34:01;10.52;;;3.50;;
28844;SDS011;15976;47.938;7.758;2023-04-25T04:36:29;8.35;;;3.30;;
28844;SDS011;15976;47.938;7.758;2023-04-25T04:39:01;7.67;;;3.20;;
28844;SDS011;15976;47.938;7.758;2023-04-25T04:42:08;10.63;;;3.30;;
28844;SDS011;15976;47.938;7.758;2023-04-25T04:44:52;4.28;;;2.70;;
28844;SDS011;15976;47.938;7.758;2023-04-25T04:47:34;5.03;;;2.95;;
28844;SDS011;15976;47.938;7.758;2023-04-25T04:50:16;7.13;;;3.00;;
28844;SDS011;15976;47.938;7.758;2023-04-25T04:53:03;8.50;;;2.88;;
28844;SDS011;15976;47.938;7.758;2023-04-25T04:55:40;8.40;;;3.10;;
28844;SDS011;15976;47.938;7.758;2023-04-25T04:58:27;6.38;;;2.97;;
28844;SDS011;15976;47.938;7.758;2023-04-25T05:01:10;10.75;;;3.30;;
28844;SDS011;15976;47.938;7.758;2023-04-25T05:07:04;5.07;;;2.80;;
28844;SDS011;15976;47.938;7.758;2023-04-25T05:09:46;7.95;;;3.17;;
28844;SDS011;15976;47.938;7.758;2023-04-25T05:12:31;8.18;;;2.97;;
28844;SDS011;15976;47.938;7.758;2023-04-25T05:15:15;11.20;;;4.30;;
28844;SDS011;15976;47.938;7.758;2023-04-25T05:17:51;5.47;;;3.20;;
28844;SDS011;15976;47.938;7.758;2023-04-25T05:20:53;4.38;;;2.90;;
28844;SDS011;15976;47.938;7.758;2023-04-25T05:23:44;4.82;;;2.60;;
28844;SDS011;15976;47.938;7.758;2023-04-25T05:26:42;4.07;;;2.50;;
28844;SDS011;15976;47.938;7.758;2023-04-25T05:29:42;3.60;;;1.90;;
28844;SDS011;15976;47.938;7.758;2023-04-25T05:32:21;13.30;;;2.08;;
28844;SDS011;15976;47.938;7.758;2023-04-25T05:34:49;8.63;;;2.08;;
28844;SDS011;15976;47.938;7.758;2023-04-25T05:37:26;26.92;;;2.45;;
28844;SDS011;15976;47.938;7.758;2023-04-25T05:40:04;2.22;;;1.27;;
28844;SDS011;15976;47.938;7.758;2023-04-25T05:42:49;20.30;;;2.30;;
28844;SDS011;15976;47.938;7.758;2023-04-25T05:45:25;5.85;;;2.00;;
28844;SDS011;15976;47.938;7.758;2023-04-25T05:47:55;3.22;;;1.65;;
28844;SDS011;15976;47.938;7.758;2023-04-25T05:50:35;3.83;;;1.52;;
28844;SDS011;15976;47.938;7.758;2023-04-25T05:53:18;12.55;;;2.00;;
28844;SDS011;15976;47.938;7.758;2023-04-25T05:55:52;2.15;;;1.83;;
28844;SDS011;15976;47.938;7.758;2023-04-25T05:58:24;1.63;;;1.50;;
28844;SDS011;15976;47.938;7.758;2023-04-25T06:00:53;4.80;;;1.38;;
28844;SDS011;15976;47.938;7.758;2023-04-25T06:03:21;4.20;;;1.60;;
28844;SDS011;15976;47.938;7.758;2023-04-25T06:05:50;2.72;;;1.77;;
28844;SDS011;15976;47.938;7.758;2023-04-25T06:08:18;2.15;;;1.65;;
28844;SDS011;15976;47.938;7.758;2023-04-25T06:10:45;3.78;;;2.20;;
28844;SDS011;15976;47.938;7.758;2023-04-25T06:13:13;3.03;;;1.80;;
28844;SDS011;15976;47.938;7.758;2023-04-25T06:15:41;2.65;;;1.85;;
28844;SDS011;15976;47.938;7.758;2023-04-25T06:18:08;1.70;;;1.60;;
28844;SDS011;15976;47.938;7.758;2023-04-25T06:20:36;2.47;;;1.58;;
28844;SDS011;15976;47.938;7.758;2023-04-25T06:23:03;2.92;;;2.00;;
28844;SDS011;15976;47.938;7.758;2023-04-25T06:25:50;2.75;;;1.92;;
28844;SDS011;15976;47.938;7.758;2023-04-25T06:28:17;2.17;;;1.60;;
28844;SDS011;15976;47.938;7.758;2023-04-25T06:30:46;2.08;;;1.88;;
28844;SDS011;15976;47.938;7.758;2023-04-25T06:33:16;2.20;;;1.80;;
28844;SDS011;15976;47.938;7.758;2023-04-25T06:35:44;1.70;;;1.60;;
28844;SDS011;15976;47.938;7.758;2023-04-25T06:38:15;2.25;;;1.80;;
28844;SDS011;15976;47.938;7.758;2023-04-25T06:40:46;1.80;;;1.40;;
28844;SDS011;15976;47.938;7.758;2023-04-25T06:43:14;2.17;;;1.60;;
28844;SDS011;15976;47.938;7.758;2023-04-25T06:45:54;2.10;;;1.70;;
28844;SDS011;15976;47.938;7.758;2023-04-25T06:48:26;3.10;;;1.80;;
28844;SDS011;15976;47.938;7.758;2023-04-25T06:50:56;1.98;;;1.50;;
28844;SDS011;15976;47.938;7.758;2023-04-25T06:53:25;2.40;;;2.17;;
28844;SDS011;15976;47.938;7.758;2023-04-25T06:55:58;3.80;;;1.58;;
28844;SDS011;15976;47.938;7.758;2023-04-25T06:58:33;2.45;;;1.70;;
28844;SDS011;15976;47.938;7.758;2023-04-25T07:01:11;3.20;;;1.73;;
28844;SDS011;15976;47.938;7.758;2023-04-25T07:03:38;2.38;;;1.80;;
28844;SDS011;15976;47.938;7.758;2023-04-25T07:06:13;2.22;;;1.60;;
28844;SDS011;15976;47.938;7.758;2023-04-25T07:08:40;2.95;;;2.10;;
28844;SDS011;15976;47.938;7.758;2023-04-25T07:11:07;2.63;;;1.90;;
28844;SDS011;15976;47.938;7.758;2023-04-25T07:13:35;2.00;;;1.80;;
28844;SDS011;15976;47.938;7.758;2023-04-25T07:16:03;2.83;;;2.20;;
28844;SDS011;15976;47.938;7.758;2023-04-25T07:18:33;3.08;;;2.03;;
28844;SDS011;15976;47.938;7.758;2023-04-25T07:21:02;4.35;;;2.60;;
28844;SDS011;15976;47.938;7.758;2023-04-25T07:23:31;3.25;;;2.63;;
28844;SDS011;15976;47.938;7.758;2023-04-25T07:26:07;4.30;;;2.80;;
28844;SDS011;15976;47.938;7.758;2023-04-25T07:28:36;2.53;;;2.30;;
28844;SDS011;15976;47.938;7.758;2023-04-25T07:31:04;8.57;;;5.30;;
28844;SDS011;15976;47.938;7.758;2023-04-25T07:33:35;5.95;;;4.55;;
28844;SDS011;15976;47.938;7.758;2023-04-25T07:36:03;7.80;;;4.10;;
28844;SDS011;15976;47.938;7.758;2023-04-25T07:38:32;3.65;;;3.28;;
28844;SDS011;15976;47.938;7.758;2023-04-25T07:41:02;7.32;;;3.28;;
28844;SDS011;15976;47.938;7.758;2023-04-25T07:43:42;4.97;;;3.08;;
28844;SDS011;15976;47.938;7.758;2023-04-25T07:46:13;6.03;;;2.95;;
28844;SDS011;15976;47.938;7.758;2023-04-25T07:48:41;7.05;;;4.10;;
28844;SDS011;15976;47.938;7.758;2023-04-25T07:51:09;7.40;;;4.30;;
28844;SDS011;15976;47.938;7.758;2023-04-25T07:53:38;7.03;;;4.07;;
28844;SDS011;15976;47.938;7.758;2023-04-25T07:56:10;5.47;;;4.13;;
28844;SDS011;15976;47.938;7.758;2023-04-25T07:58:41;5.22;;;4.07;;
28844;SDS011;15976;47.938;7.758;2023-04-25T08:01:11;7.15;;;4.28;;
28844;SDS011;15976;47.938;7.758;2023-04-25T08:03:52;8.70;;;5.15;;
28844;SDS011;15976;47.938;7.758;2023-04-25T08:06:40;11.05;;;5.88;;
28844;SDS011;15976;47.938;7.758;2023-04-25T08:09:15;8.38;;;4.07;;
28844;SDS011;15976;47.938;7.758;2023-04-25T08:11:44;5.55;;;4.00;;
28844;SDS011;15976;47.938;7.758;2023-04-25T08:14:15;5.70;;;3.80;;
28844;SDS011;15976;47.938;7.758;2023-04-25T08:16:47;6.90;;;3.45;;
28844;SDS011;15976;47.938;7.758;2023-04-25T08:19:16;4.47;;;3.78;;
28844;SDS011;15976;47.938;7.758;2023-04-25T08:21:44;6.43;;;4.38;;
28844;SDS011;15976;47.938;7.758;2023-04-25T08:24:15;5.10;;;4.00;;
28844;SDS011;15976;47.938;7.758;2023-04-25T08:26:43;4.90;;;3.63;;
28844;SDS011;15976;47.938;7.758;2023-04-25T08:29:14;5.15;;;3.80;;
28844;SDS011;15976;47.938;7.758;2023-04-25T08:31:46;4.68;;;3.38;;
28844;SDS011;15976;47.938;7.758;2023-04-25T08:34:14;6.72;;;4.18;;
28844;SDS011;15976;47.938;7.758;2023-04-25T08:36:46;6.35;;;3.92;;
28844;SDS011;15976;47.938;7.758;2023-04-25T08:39:36;8.70;;;5.10;;
28844;SDS011;15976;47.938;7.758;2023-04-25T08:42:42;6.47;;;4.13;;
28844;SDS011;15976;47.938;7.758;2023-04-25T08:45:09;7.13;;;3.75;;
28844;SDS011;15976;47.938;7.758;2023-04-25T08:47:40;5.40;;;3.80;;
28844;SDS011;15976;47.938;7.758;2023-04-25T08:50:08;4.88;;;4.20;;
28844;SDS011;15976;47.938;7.758;2023-04-25T08:52:43;6.68;;;4.13;;
28844;SDS011;15976;47.938;7.758;2023-04-25T08:55:14;3.50;;;2.65;;
28844;SDS011;15976;47.938;7.758;2023-04-25T08:57:47;3.22;;;2.67;;
28844;SDS011;15976;47.938;7.758;2023-04-25T09:00:17;4.65;;;3.13;;
28844;SDS011;15976;47.938;7.758;2023-04-25T09:02:48;2.67;;;2.42;;
28844;SDS011;15976;47.938;7.758;2023-04-25T09:08:14;6.15;;;3.80;;
28844;SDS011;15976;47.938;7.758;2023-04-25T09:10:56;5.32;;;4.10;;
28844;SDS011;15976;47.938;7.758;2023-04-25T09:13:38;4.75;;;3.67;;
28844;SDS011;15976;47.938;7.758;2023-04-25T09:19:45;5.28;;;3.08;;
28844;SDS011;15976;47.938;7.758;2023-04-25T09:22:34;6.25;;;3.10;;
28844;SDS011;15976;47.938;7.758;2023-04-25T09:25:25;4.22;;;2.90;;
28844;SDS011;15976;47.938;7.758;2023-04-25T09:28:11;4.05;;;3.10;;
28844;SDS011;15976;47.938;7.758;2023-04-25T09:30:54;4.88;;;3.72;;
28844;SDS011;15976;47.938;7.758;2023-04-25T09:33:33;8.48;;;5.10;;
28844;SDS011;15976;47.938;7.758;2023-04-25T09:37:01;7.40;;;5.18;;
28844;SDS011;15976;47.938;7.758;2023-04-25T09:40:06;3.60;;;2.67;;
28844;SDS011;15976;47.938;7.758;2023-04-25T09:42:47;2.47;;;2.10;;
28844;SDS011;15976;47.938;7.758;2023-04-25T09:49:22;2.58;;;2.15;;
28844;SDS011;15976;47.938;7.758;2023-04-25T09:52:14;2.83;;;2.22;;
28844;SDS011;15976;47.938;7.758;2023-04-25T09:55:31;2.45;;;1.92;;
28844;SDS011;15976;47.938;7.758;2023-04-25T10:02:23;3.45;;;2.03;;
28844;SDS011;15976;47.938;7.758;2023-04-25T10:06:22;3.83;;;1.83;;
28844;SDS011;15976;47.938;7.758;2023-04-25T10:09:03;3.13;;;1.60;;
28844;SDS011;15976;47.938;7.758;2023-04-25T10:14:59;3.33;;;1.85;;
28844;SDS011;15976;47.938;7.758;2023-04-25T10:17:47;3.08;;;1.73;;
28844;SDS011;15976;47.938;7.758;2023-04-25T10:20:37;2.28;;;1.90;;
28844;SDS011;15976;47.938;7.758;2023-04-25T10:23:22;2.13;;;1.70;;
28844;SDS011;15976;47.938;7.758;2023-04-25T10:25:50;3.22;;;1.80;;
28844;SDS011;15976;47.938;7.758;2023-04-25T10:28:18;3.65;;;1.73;;
28844;SDS011;15976;47.938;7.758;2023-04-25T10:33:43;2.03;;;1.70;;
28844;SDS011;15976;47.938;7.758;2023-04-25T10:36:14;1.92;;;1.73;;
28844;SDS011;15976;47.938;7.758;2023-04-25T10:38:45;2.00;;;1.80;;
28844;SDS011;15976;47.938;7.758;2023-04-25T10:41:13;1.98;;;1.65;;
28844;SDS011;15976;47.938;7.758;2023-04-25T10:43:43;2.72;;;1.70;;
28844;SDS011;15976;47.938;7.758;2023-04-25T10:46:25;1.65;;;1.55;;
28844;SDS011;15976;47.938;7.758;2023-04-25T10:48:54;2.30;;;1.90;;
28844;SDS011;15976;47.938;7.758;2023-04-25T10:51:27;6.78;;;2.08;;
28844;SDS011;15976;47.938;7.758;2023-04-25T10:54:20;1.88;;;1.75;;
28844;SDS011;15976;47.938;7.758;2023-04-25T10:57:26;2.42;;;2.08;;
28844;SDS011;15976;47.938;7.758;2023-04-25T11:03:25;3.33;;;1.95;;
28844;SDS011;15976;47.938;7.758;2023-04-25T11:06:34;2.47;;;1.95;;
28844;SDS011;15976;47.938;7.758;2023-04-25T11:09:51;2.65;;;2.17;;
28844;SDS011;15976;47.938;7.758;2023-04-25T11:12:29;2.95;;;2.38;;
28844;SDS011;15976;47.938;7.758;2023-04-25T11:15:14;3.35;;;2.38;;
28844;SDS011;15976;47.938;7.758;2023-04-25T11:18:07;3.25;;;2.22;;
28844;SDS011;15976;47.938;7.758;2023-04-25T11:21:17;3.13;;;2.10;;
28844;SDS011;15976;47.938;7.758;2023-04-25T11:24:14;3.17;;;2.10;;
28844;SDS011;15976;47.938;7.758;2023-04-25T11:27:00;3.90;;;2.97;;
28844;SDS011;15976;47.938;7.758;2023-04-25T11:29:30;4.65;;;3.00;;
28844;SDS011;15976;47.938;7.758;2023-04-25T11:32:04;3.65;;;2.28;;
28844;SDS011;15976;47.938;7.758;2023-04-25T11:34:33;4.30;;;2.50;;
28844;SDS011;15976;47.938;7.758;2023-04-25T11:37:01;5.18;;;2.40;;
28844;SDS011;15976;47.938;7.758;2023-04-25T11:39:33;4.20;;;2.00;;
28844;SDS011;15976;47.938;7.758;2023-04-25T11:42:07;3.45;;;2.00;;
28844;SDS011;15976;47.938;7.758;2023-04-25T11:44:56;2.75;;;1.80;;
28844;SDS011;15976;47.938;7.758;2023-04-25T11:47:30;2.75;;;1.80;;
28844;SDS011;15976;47.938;7.758;2023-04-25T11:50:01;2.28;;;2.00;;
28844;SDS011;15976;47.938;7.758;2023-04-25T11:52:42;3.40;;;1.92;;
28844;SDS011;15976;47.938;7.758;2023-04-25T11:58:01;2.78;;;1.90;;
28844;SDS011;15976;47.938;7.758;2023-04-25T12:01:02;2.05;;;1.60;;
28844;SDS011;15976;47.938;7.758;2023-04-25T12:03:47;2.22;;;1.52;;
28844;SDS011;15976;47.938;7.758;2023-04-25T12:06:43;1.83;;;1.60;;
28844;SDS011;15976;47.938;7.758;2023-04-25T12:09:28;2.58;;;1.52;;
28844;SDS011;15976;47.938;7.758;2023-04-25T12:12:13;1.90;;;1.60;;
28844;SDS011;15976;47.938;7.758;2023-04-25T12:14:45;2.70;;;1.90;;
28844;SDS011;15976;47.938;7.758;2023-04-25T12:17:28;1.95;;;1.63;;
28844;SDS011;15976;47.938;7.758;2023-04-25T12:19:55;2.03;;;1.70;;
28844;SDS011;15976;47.938;7.758;2023-04-25T12:22:23;2.70;;;1.67;;
28844;SDS011;15976;47.938;7.758;2023-04-25T12:24:56;3.45;;;2.22;;
28844;SDS011;15976;47.938;7.758;2023-04-25T12:27:25;2.33;;;1.70;;
28844;SDS011;15976;47.938;7.758;2023-04-25T12:29:54;1.65;;;1.50;;
28844;SDS011;15976;47.938;7.758;2023-04-25T12:32:23;1.73;;;1.50;;
28844;SDS011;15976;47.938;7.758;2023-04-25T12:34:50;1.85;;;1.70;;
28844;SDS011;15976;47.938;7.758;2023-04-25T12:37:17;3.30;;;1.55;;
28844;SDS011;15976;47.938;7.758;2023-04-25T12:39:44;2.15;;;1.63;;
28844;SDS011;15976;47.938;7.758;2023-04-25T12:42:12;2.60;;;1.77;;
28844;SDS011;15976;47.938;7.758;2023-04-25T12:44:39;1.65;;;1.27;;
28844;SDS011;15976;47.938;7.758;2023-04-25T12:47:07;1.90;;;1.70;;
28844;SDS011;15976;47.938;7.758;2023-04-25T12:49:34;1.48;;;1.38;;
28844;SDS011;15976;47.938;7.758;2023-04-25T12:52:01;1.85;;;1.40;;
28844;SDS011;15976;47.938;7.758;2023-04-25T12:54:28;1.88;;;1.60;;
28844;SDS011;15976;47.938;7.758;2023-04-25T12:56:56;2.03;;;1.63;;
28844;SDS011;15976;47.938;7.758;2023-04-25T12:59:24;1.75;;;1.60;;
28844;SDS011;15976;47.938;7.758;2023-04-25T13:01:51;3.10;;;1.77;;
28844;SDS011;15976;47.938;7.758;2023-04-25T13:04:18;2.67;;;1.60;;
28844;SDS011;15976;47.938;7.758;2023-04-25T13:06:47;1.73;;;1.60;;
28844;SDS011;15976;47.938;7.758;2023-04-25T13:09:14;2.95;;;1.88;;
28844;SDS011;15976;47.938;7.758;2023-04-25T13:11:42;2.88;;;2.03;;
28844;SDS011;15976;47.938;7.758;2023-04-25T13:14:08;2.95;;;2.05;;
28844;SDS011;15976;47.938;7.758;2023-04-25T13:16:36;3.17;;;2.10;;
28844;SDS011;15976;47.938;7.758;2023-04-25T13:19:03;2.25;;;1.45;;
28844;SDS011;15976;47.938;7.758;2023-04-25T13:21:30;2.85;;;2.20;;
28844;SDS011;15976;47.938;7.758;2023-04-25T13:24:00;2.55;;;1.65;;
28844;SDS011;15976;47.938;7.758;2023-04-25T13:26:27;3.00;;;1.33;;
28844;SDS011;15976;47.938;7.758;2023-04-25T13:28:54;2.13;;;1.70;;
28844;SDS011;15976;47.938;7.758;2023-04-25T13:31:22;3.88;;;2.63;;
28844;SDS011;15976;47.938;7.758;2023-04-25T13:36:57;2.38;;;1.80;;
28844;SDS011;15976;47.938;7.758;2023-04-25T13:39:46;1.75;;;1.48;;
28844;SDS011;15976;47.938;7.758;2023-04-25T13:42:13;1.95;;;1.65;;
28844;SDS011;15976;47.938;7.758;2023-04-25T13:44:41;1.83;;;1.58;;
28844;SDS011;15976;47.938;7.758;2023-04-25T13:47:10;2.00;;;1.60;;
28844;SDS011;15976;47.938;7.758;2023-04-25T13:49:54;2.42;;;1.70;;
28844;SDS011;15976;47.938;7.758;2023-04-25T13:52:22;2.85;;;2.00;;
28844;SDS011;15976;47.938;7.758;2023-04-25T13:55:03;3.58;;;1.80;;
28844;SDS011;15976;47.938;7.758;2023-04-25T13:57:33;1.40;;;1.30;;
28844;SDS011;15976;47.938;7.758;2023-04-25T14:00:04;2.47;;;1.42;;
28844;SDS011;15976;47.938;7.758;2023-04-25T14:02:37;1.38;;;1.27;;
28844;SDS011;15976;47.938;7.758;2023-04-25T14:05:07;1.83;;;1.40;;
28844;SDS011;15976;47.938;7.758;2023-04-25T14:07:38;1.40;;;1.05;;
28844;SDS011;15976;47.938;7.758;2023-04-25T14:10:08;1.30;;;1.10;;
28844;SDS011;15976;47.938;7.758;2023-04-25T14:12:38;1.70;;;1.20;;
28844;SDS011;15976;47.938;7.758;2023-04-25T14:15:08;1.65;;;1.40;;
28844;SDS011;15976;47.938;7.758;2023-04-25T14:17:35;1.77;;;1.20;;
28844;SDS011;15976;47.938;7.758;2023-04-25T14:20:03;1.50;;;1.30;;
28844;SDS011;15976;47.938;7.758;2023-04-25T14:22:32;2.63;;;1.90;;
28844;SDS011;15976;47.938;7.758;2023-04-25T14:24:59;2.67;;;1.70;;
28844;SDS011;15976;47.938;7.758;2023-04-25T14:27:26;1.58;;;1.30;;
28844;SDS011;15976;47.938;7.758;2023-04-25T14:29:54;3.35;;;1.38;;
28844;SDS011;15976;47.938;7.758;2023-04-25T14:39:38;3.67;;;1.73;;
28844;SDS011;15976;47.938;7.758;2023-04-25T14:42:05;2.88;;;2.00;;
28844;SDS011;15976;47.938;7.758;2023-04-25T14:44:32;1.65;;;1.55;;
28844;SDS011;15976;47.938;7.758;2023-04-25T14:46:59;2.90;;;2.70;;
28844;SDS011;15976;47.938;7.758;2023-04-25T14:49:26;5.03;;;4.35;;
28844;SDS011;15976;47.938;7.758;2023-04-25T14:51:54;9.23;;;8.23;;
28844;SDS011;15976;47.938;7.758;2023-04-25T14:54:21;4.10;;;2.03;;
28844;SDS011;15976;47.938;7.758;2023-04-25T14:56:48;3.20;;;1.92;;
28844;SDS011;15976;47.938;7.758;2023-04-25T14:59:16;3.75;;;1.73;;
28844;SDS011;15976;47.938;7.758;2023-04-25T15:01:43;2.78;;;2.08;;
28844;SDS011;15976;47.938;7.758;2023-04-25T15:04:10;3.78;;;3.30;;
28844;SDS011;15976;47.938;7.758;2023-04-25T15:06:39;1.92;;;1.60;;
28844;SDS011;15976;47.938;7.758;2023-04-25T15:09:07;2.70;;;2.28;;
28844;SDS011;15976;47.938;7.758;2023-04-25T15:11:36;2.97;;;2.00;;
28844;SDS011;15976;47.938;7.758;2023-04-25T15:14:03;3.25;;;1.98;;
28844;SDS011;15976;47.938;7.758;2023-04-25T15:16:30;2.95;;;2.22;;
28844;SDS011;15976;47.938;7.758;2023-04-25T15:18:58;2.78;;;2.35;;
28844;SDS011;15976;47.938;7.758;2023-04-25T15:21:25;3.75;;;2.58;;
28844;SDS011;15976;47.938;7.758;2023-04-25T15:23:53;3.83;;;2.53;;
28844;SDS011;15976;47.938;7.758;2023-04-25T15:26:21;3.60;;;2.20;;
28844;SDS011;15976;47.938;7.758;2023-04-25T15:29:00;3.47;;;2.30;;
28844;SDS011;15976;47.938;7.758;2023-04-25T15:31:32;3.22;;;2.30;;
28844;SDS011;15976;47.938;7.758;2023-04-25T15:34:07;2.40;;;2.05;;
28844;SDS011;15976;47.938;7.758;2023-04-25T15:36:38;6.63;;;2.40;;
28844;SDS011;15976;47.938;7.758;2023-04-25T15:39:16;2.88;;;1.98;;
28844;SDS011;15976;47.938;7.758;2023-04-25T15:46:39;7.10;;;4.45;;
28844;SDS011;15976;47.938;7.758;2023-04-25T15:49:28;2.63;;;2.42;;
28844;SDS011;15976;47.938;7.758;2023-04-25T15:52:12;3.20;;;2.58;;
28844;SDS011;15976;47.938;7.758;2023-04-25T15:55:39;3.10;;;2.42;;
28844;SDS011;15976;47.938;7.758;2023-04-25T15:58:32;3.72;;;2.83;;
28844;SDS011;15976;47.938;7.758;2023-04-25T16:01:04;2.83;;;2.05;;
28844;SDS011;15976;47.938;7.758;2023-04-25T16:03:33;2.92;;;2.30;;
28844;SDS011;15976;47.938;7.758;2023-04-25T16:06:02;4.90;;;2.45;;
28844;SDS011;15976;47.938;7.758;2023-04-25T16:08:30;4.05;;;2.75;;
28844;SDS011;15976;47.938;7.758;2023-04-25T16:11:34;2.35;;;2.15;;
28844;SDS011;15976;47.938;7.758;2023-04-25T16:14:01;3.40;;;2.10;;
28844;SDS011;15976;47.938;7.758;2023-04-25T16:16:28;3.45;;;2.20;;
28844;SDS011;15976;47.938;7.758;2023-04-25T16:18:55;2.17;;;1.98;;